Time;durP1;ratioP1;P1;durP2;ratioP2;P2;SDS_P1;SDS_P2;PMS_P1;PMS_P2;Temp;Humidity;BMP_temperature;BMP_pressure;BME280_temperature;BME280_humidity;BME280_pressure;Samples;Min_cycle;Max_cycle;Signal;HPM_P1;HPM_P2
2022/12/25 00:02:16;;;;;;;10.97;5.00;;;;;9.90;100873.00;;;;9777922;30;20259;-79
2022/12/25 00:07:20;;;;;;;10.53;4.03;;;;;9.90;100856.00;;;;9806302;30;20286;-80
2022/12/25 00:12:22;;;;;;;10.17;3.93;;;;;9.80;100868.00;;;;9841957;30;20269;-80
2022/12/25 00:17:24;;;;;;;8.30;4.10;;;;;9.80;100872.00;;;;9814335;30;20211;-80
2022/12/25 00:22:26;;;;;;;7.87;4.13;;;;;9.70;100876.00;;;;9842915;30;20316;-80
2022/12/25 00:27:31;;;;;;;8.47;4.30;;;;;9.70;100884.00;;;;9817700;30;20317;-80
2022/12/25 00:32:35;;;;;;;8.30;3.20;;;;;9.70;100868.00;;;;9807570;30;20219;-80
2022/12/25 00:37:37;;;;;;;7.43;3.30;;;;;9.70;100859.00;;;;9808664;30;20209;-80
2022/12/25 00:42:39;;;;;;;11.40;3.30;;;;;9.60;100866.00;;;;9806855;30;20804;-80
2022/12/25 00:47:41;;;;;;;7.80;2.67;;;;;9.60;100855.00;;;;9793579;30;20228;-79
2022/12/25 00:52:43;;;;;;;5.37;2.80;;;;;9.60;100856.00;;;;9798653;30;20231;-79
2022/12/25 00:57:45;;;;;;;6.43;2.67;;;;;9.60;100844.00;;;;9815282;30;20243;-79
2022/12/25 01:02:47;;;;;;;6.03;2.60;;;;;9.60;100834.00;;;;9813875;30;20208;-79
2022/12/25 01:07:50;;;;;;;8.83;3.20;;;;;9.70;100843.00;;;;9829429;30;20240;-78
2022/12/25 01:12:52;;;;;;;8.00;2.70;;;;;9.70;100828.00;;;;9815401;30;20218;-78
2022/12/25 01:17:54;;;;;;;5.17;2.73;;;;;9.60;100847.00;;;;9814572;30;20238;-78
2022/12/25 01:22:57;;;;;;;6.73;2.03;;;;;9.60;100837.00;;;;9828526;30;20199;-78
2022/12/25 01:27:59;;;;;;;8.87;2.83;;;;;9.60;100827.00;;;;9812854;30;20311;-79
2022/12/25 01:33:01;;;;;;;6.13;1.73;;;;;9.60;100847.00;;;;9828096;30;20299;-78
2022/12/25 01:38:03;;;;;;;4.73;1.90;;;;;9.60;100855.00;;;;9840700;30;20240;-79
2022/12/25 01:43:20;;;;;;;3.13;1.67;;;;;9.70;100855.00;;;;9790769;30;20204;-78
2022/12/25 01:48:27;;;;;;;3.27;1.90;;;;;9.70;100854.00;;;;9795121;30;20304;-80
2022/12/25 01:53:30;;;;;;;6.57;1.93;;;;;9.70;100858.00;;;;9809480;30;20212;-79
2022/12/25 01:58:32;;;;;;;5.53;2.10;;;;;9.70;100870.00;;;;9833363;30;20199;-78
2022/12/25 02:03:34;;;;;;;5.53;2.10;;;;;9.70;100878.00;;;;9849384;30;20236;-78
2022/12/25 02:08:36;;;;;;;5.63;2.13;;;;;9.70;100888.00;;;;9833809;30;20228;-79
2022/12/25 02:13:38;;;;;;;4.30;1.53;;;;;9.70;100881.00;;;;9835958;30;20205;-78
2022/12/25 02:18:58;;;;;;;5.97;1.93;;;;;9.70;100891.00;;;;9836054;30;20595;-79
2022/12/25 02:24:30;;;;;;;5.10;1.57;;;;;9.70;100894.00;;;;9849629;30;20652;-78
2022/12/25 02:29:46;;;;;;;2.67;1.40;;;;;9.70;100889.00;;;;9833782;30;20685;-79
2022/12/25 02:34:54;;;;;;;5.47;1.63;;;;;9.70;100888.00;;;;9821873;30;20192;-80
2022/12/25 02:40:14;;;;;;;6.53;1.57;;;;;9.70;100888.00;;;;9818397;30;20636;-79
2022/12/25 03:07:11;;;;;;;4.77;1.70;;;;;9.60;100821.00;;;;9804856;30;20236;-79
2022/12/25 03:12:36;;;;;;;7.93;2.20;;;;;9.60;100820.00;;;;9811664;30;20212;-79
2022/12/25 03:17:38;;;;;;;4.47;1.87;;;;;9.60;100797.00;;;;9796250;30;20650;-80
2022/12/25 03:28:04;;;;;;;3.57;1.60;;;;;9.50;100805.00;;;;9809288;30;20224;-79
2022/12/25 03:33:11;;;;;;;4.73;1.70;;;;;9.50;100798.00;;;;9811068;30;20192;-79
2022/12/25 04:38:43;;;;;;;5.53;2.30;;;;;9.20;100747.00;;;;9829096;30;20200;-79
2022/12/25 04:43:45;;;;;;;3.80;2.17;;;;;9.20;100746.00;;;;9808726;30;20336;-80
2022/12/25 04:48:47;;;;;;;5.63;2.50;;;;;9.20;100742.00;;;;9805963;30;20661;-79
2022/12/25 04:53:50;;;;;;;3.07;2.50;;;;;9.10;100760.00;;;;9806105;30;20205;-79
2022/12/25 04:58:52;;;;;;;10.33;2.70;;;;;9.10;100766.00;;;;9791803;30;20550;-80
2022/12/25 05:03:53;;;;;;;7.63;2.60;;;;;9.20;100747.00;;;;9823620;30;20212;-79
2022/12/25 05:08:56;;;;;;;5.47;2.60;;;;;9.20;100759.00;;;;9842417;30;20216;-79
2022/12/25 05:13:58;;;;;;;7.37;2.93;;;;;9.20;100758.00;;;;9842854;30;20200;-79
2022/12/25 05:19:00;;;;;;;5.67;2.60;;;;;9.30;100745.00;;;;9829212;30;20209;-79
2022/12/25 05:24:02;;;;;;;9.57;3.00;;;;;9.30;100750.00;;;;9842867;30;20347;-79
2022/12/25 05:29:04;;;;;;;8.40;3.40;;;;;9.30;100738.00;;;;9842814;30;20644;-80
2022/12/25 05:34:06;;;;;;;7.73;3.67;;;;;9.30;100736.00;;;;9829035;30;20219;-79
2022/12/25 05:39:08;;;;;;;5.50;3.03;;;;;9.40;100725.00;;;;9828758;30;20189;-80
2022/12/25 05:44:11;;;;;;;3.87;2.87;;;;;9.40;100718.00;;;;9828287;30;20208;-79
2022/12/25 05:49:13;;;;;;;6.80;3.50;;;;;9.40;100702.00;;;;9813765;30;20220;-79
2022/12/25 05:54:15;;;;;;;7.93;3.47;;;;;9.40;100693.00;;;;9812653;30;20295;-79
2022/12/25 05:59:17;;;;;;;9.63;3.20;;;;;9.40;100688.00;;;;9812789;30;20207;-80
2022/12/25 06:04:19;;;;;;;6.67;3.60;;;;;9.40;100689.00;;;;9813369;30;20227;-79
2022/12/25 06:09:21;;;;;;;7.13;3.33;;;;;9.40;100657.00;;;;9842200;30;20243;-79
2022/12/25 06:14:22;;;;;;;4.57;3.30;;;;;9.40;100642.00;;;;9841814;30;20212;-80
2022/12/25 06:19:24;;;;;;;6.27;3.13;;;;;9.40;100624.00;;;;9826582;30;20542;-79
2022/12/25 06:24:26;;;;;;;3.90;2.43;;;;;9.40;100598.00;;;;9826445;30;20213;-79
2022/12/25 06:29:28;;;;;;;3.70;3.10;;;;;9.40;100596.00;;;;9826614;30;20242;-79
2022/12/25 06:34:30;;;;;;;6.67;3.43;;;;;9.40;100600.00;;;;9815068;30;20208;-79
2022/12/25 06:39:32;;;;;;;6.10;2.80;;;;;9.30;100608.00;;;;9814737;30;20194;-80
2022/12/25 06:44:34;;;;;;;5.97;2.63;;;;;9.30;100592.00;;;;9825421;30;20197;-80
2022/12/25 06:49:36;;;;;;;4.20;2.70;;;;;9.30;100575.00;;;;9809686;30;20205;-80
2022/12/25 06:54:38;;;;;;;4.10;2.70;;;;;9.30;100571.00;;;;9824857;30;20200;-79
2022/12/25 06:59:40;;;;;;;4.57;2.73;;;;;9.20;100576.00;;;;9810231;30;20197;-80
2022/12/25 07:04:42;;;;;;;3.60;2.70;;;;;9.20;100571.00;;;;9824602;30;20217;-80
2022/12/25 07:09:44;;;;;;;5.43;3.23;;;;;9.10;100570.00;;;;9824623;30;20262;-80
2022/12/25 07:14:48;;;;;;;6.97;3.63;;;;;9.00;100589.00;;;;9796001;30;20209;-79
2022/12/25 07:19:50;;;;;;;4.90;3.10;;;;;9.00;100590.00;;;;9795774;30;20212;-79
2022/12/25 07:24:52;;;;;;;6.50;3.03;;;;;8.90;100596.00;;;;9795984;30;20213;-80
2022/12/25 07:29:54;;;;;;;4.10;3.00;;;;;8.90;100611.00;;;;9796435;30;21007;-79
2022/12/25 07:34:56;;;;;;;3.93;2.63;;;;;9.00;100637.00;;;;9796480;30;20216;-79
2022/12/25 07:39:58;;;;;;;4.93;2.50;;;;;9.00;100642.00;;;;9815332;30;20200;-79
2022/12/25 07:44:59;;;;;;;3.60;2.77;;;;;9.00;100654.00;;;;9817359;30;20197;-79
2022/12/25 07:50:02;;;;;;;4.50;2.30;;;;;9.00;100640.00;;;;9794326;30;20221;-79
2022/12/25 07:55:04;;;;;;;4.30;2.43;;;;;9.10;100657.00;;;;9812777;30;20220;-80
2022/12/25 08:00:06;;;;;;;5.37;3.10;;;;;9.10;100657.00;;;;9815912;30;20210;-80
2022/12/25 08:05:12;;;;;;;5.03;2.50;;;;;9.10;100689.00;;;;9831479;30;20701;-80
2022/12/25 08:10:14;;;;;;;6.83;3.00;;;;;9.10;100712.00;;;;9816867;30;20727;-80
2022/12/25 08:15:16;;;;;;;9.37;3.07;;;;;9.10;100698.00;;;;9845126;30;20203;-79
2022/12/25 08:20:18;;;;;;;7.07;3.50;;;;;9.10;100690.00;;;;9834770;30;20192;-80
2022/12/25 08:25:20;;;;;;;7.73;3.77;;;;;9.10;100669.00;;;;9845410;30;20199;-81
2022/12/25 08:30:22;;;;;;;5.20;3.20;;;;;9.00;100665.00;;;;9828883;30;20302;-81
2022/12/25 08:35:25;;;;;;;4.93;3.17;;;;;9.00;100659.00;;;;9841811;30;20232;-80
2022/12/25 08:40:27;;;;;;;6.73;3.67;;;;;9.00;100661.00;;;;9816623;30;20743;-81
2022/12/25 08:45:30;;;;;;;4.77;3.70;;;;;9.00;100651.00;;;;9830495;30;20229;-81
2022/12/25 08:50:36;;;;;;;7.77;4.43;;;;;9.10;100634.00;;;;9842095;30;20181;-79
2022/12/25 08:55:38;;;;;;;6.07;3.57;;;;;9.00;100626.00;;;;9817073;30;20205;-81
2022/12/25 09:00:41;;;;;;;8.60;5.40;;;;;9.00;100641.00;;;;9815145;30;20681;-79
2022/12/25 09:05:42;;;;;;;10.70;6.60;;;;;9.00;100646.00;;;;9814385;30;20236;-80
2022/12/25 09:10:44;;;;;;;5.77;4.30;;;;;9.10;100660.00;;;;9798092;30;20240;-80
2022/12/25 09:15:47;;;;;;;4.07;3.40;;;;;9.10;100652.00;;;;9800064;30;20213;-80
2022/12/25 09:21:01;;;;;;;4.17;2.93;;;;;9.20;100651.00;;;;9801594;30;20193;-80
2022/12/25 09:26:05;;;;;;;5.90;3.87;;;;;9.20;100621.00;;;;9800564;30;20221;-80
2022/12/25 09:31:07;;;;;;;5.83;3.40;;;;;9.20;100609.00;;;;9823312;30;20212;-80
2022/12/25 09:36:09;;;;;;;4.63;3.50;;;;;9.20;100611.00;;;;9833840;30;20215;-79
2022/12/25 09:41:37;;;;;;;5.80;3.50;;;;;9.20;100604.00;;;;9850368;30;20224;-79
2022/12/25 09:47:05;;;;;;;4.80;3.20;;;;;9.30;100599.00;;;;9837194;30;20208;-80
2022/12/25 09:52:17;;;;;;;5.80;4.27;;;;;9.20;100603.00;;;;9815274;30;20209;-80
2022/12/25 09:57:19;;;;;;;4.43;3.73;;;;;9.20;100594.00;;;;9835138;30;20184;-79
2022/12/25 10:02:46;;;;;;;5.87;3.80;;;;;9.20;100570.00;;;;9848299;30;20261;-80
2022/12/25 10:08:08;;;;;;;9.47;4.33;;;;;9.30;100578.00;;;;9802693;30;20608;-79
2022/12/25 10:13:52;;;;;;;7.40;3.77;;;;;9.40;100566.00;;;;9827988;30;20212;-80
2022/12/25 10:19:23;;;;;;;6.83;4.03;;;;;9.50;100560.00;;;;9775254;30;20208;-80
2022/12/25 10:24:48;;;;;;;6.83;3.90;;;;;9.50;100560.00;;;;9819125;30;20213;-79
2022/12/25 10:29:55;;;;;;;5.80;4.33;;;;;9.50;100564.00;;;;9837250;30;20296;-79
2022/12/25 10:34:57;;;;;;;5.90;4.50;;;;;9.50;100566.00;;;;9836158;30;20673;-79
2022/12/25 10:39:59;;;;;;;14.30;5.30;;;;;9.50;100556.00;;;;9829730;30;20553;-80
2022/12/25 10:45:04;;;;;;;9.90;6.20;;;;;9.50;100539.00;;;;9815447;30;20214;-80
2022/12/25 10:50:27;;;;;;;6.93;5.30;;;;;9.50;100536.00;;;;9821521;30;20256;-80
2022/12/25 10:55:30;;;;;;;7.07;4.53;;;;;9.50;100523.00;;;;9836908;30;20200;-79
2022/12/25 11:00:32;;;;;;;7.77;5.60;;;;;9.50;100505.00;;;;9820925;30;20219;-79
2022/12/25 11:05:35;;;;;;;11.30;7.50;;;;;9.50;100492.00;;;;9820991;30;20327;-79
2022/12/25 11:10:42;;;;;;;12.07;7.57;;;;;9.50;100511.00;;;;9836480;30;20224;-79
2022/12/25 11:15:47;;;;;;;10.87;6.93;;;;;9.60;100483.00;;;;9814631;30;20560;-79
2022/12/25 11:20:58;;;;;;;10.33;6.50;;;;;9.60;100495.00;;;;9798930;30;20194;-79
2022/12/25 11:26:10;;;;;;;6.83;5.53;;;;;9.60;100503.00;;;;9826902;30;20208;-79
2022/12/25 11:31:28;;;;;;;13.10;7.90;;;;;9.70;100489.00;;;;9837305;30;20214;-79
2022/12/25 11:36:47;;;;;;;11.27;7.87;;;;;9.80;100477.00;;;;9836733;30;20208;-79
2022/12/25 11:42:12;;;;;;;11.20;6.90;;;;;9.70;100498.00;;;;9820598;30;20220;-79
2022/12/25 11:47:40;;;;;;;8.57;5.97;;;;;9.80;100485.00;;;;9865595;30;20611;-80
2022/12/25 11:52:45;;;;;;;10.73;6.57;;;;;9.80;100486.00;;;;9814609;30;20317;-79
2022/12/25 11:57:54;;;;;;;12.30;7.67;;;;;9.80;100453.00;;;;9818046;30;20919;-80
2022/12/25 12:03:09;;;;;;;14.37;9.93;;;;;9.80;100449.00;;;;9804852;30;20231;-80
2022/12/25 12:08:12;;;;;;;11.83;8.93;;;;;9.80;100460.00;;;;9837173;30;20293;-80
2022/12/25 12:13:14;;;;;;;11.40;7.33;;;;;9.80;100460.00;;;;9851506;30;20736;-80
2022/12/25 12:18:26;;;;;;;13.33;8.63;;;;;9.70;100452.00;;;;9851141;30;20204;-80
2022/12/25 12:23:33;;;;;;;13.70;9.23;;;;;9.70;100441.00;;;;9825244;30;20224;-80
2022/12/25 12:28:43;;;;;;;9.77;8.10;;;;;9.60;100440.00;;;;9837385;30;20208;-79
2022/12/25 12:33:58;;;;;;;7.13;6.03;;;;;9.60;100439.00;;;;9820746;30;20208;-79
2022/12/25 12:39:00;;;;;;;9.27;8.03;;;;;9.60;100431.00;;;;9849391;30;20197;-79
2022/12/25 12:44:03;;;;;;;6.37;5.63;;;;;9.50;100422.00;;;;9782254;30;20217;-80
2022/12/25 12:49:19;;;;;;;6.73;5.13;;;;;9.50;100408.00;;;;9818266;30;20745;-79
2022/12/25 12:54:26;;;;;;;5.83;4.47;;;;;9.40;100403.00;;;;9818396;30;20214;-78
2022/12/25 12:59:42;;;;;;;5.37;4.00;;;;;9.40;100393.00;;;;9847731;30;20524;-78
2022/12/25 13:04:44;;;;;;;6.97;5.73;;;;;9.40;100381.00;;;;9831996;30;20231;-79
2022/12/25 13:09:51;;;;;;;9.87;6.60;;;;;9.40;100384.00;;;;9795212;30;20236;-79
2022/12/25 13:14:53;;;;;;;5.90;5.07;;;;;9.30;100369.00;;;;9806523;30;20212;-79
2022/12/25 13:19:58;;;;;;;7.50;5.80;;;;;9.40;100355.00;;;;9836157;30;20200;-79
2022/12/25 13:25:03;;;;;;;8.93;6.50;;;;;9.40;100343.00;;;;9814463;30;20213;-79
2022/12/25 13:30:19;;;;;;;6.23;4.27;;;;;9.40;100346.00;;;;9829969;30;20231;-80
2022/12/25 13:35:22;;;;;;;11.07;6.67;;;;;9.50;100345.00;;;;9815721;30;20211;-79
2022/12/25 13:40:26;;;;;;;9.90;7.10;;;;;9.50;100343.00;;;;9828995;30;20295;-79
2022/12/25 13:45:29;;;;;;;10.03;8.03;;;;;9.50;100319.00;;;;9837121;30;20226;-78
2022/12/25 13:50:33;;;;;;;9.77;7.10;;;;;9.50;100335.00;;;;9836929;30;20247;-80
2022/12/25 13:55:35;;;;;;;9.77;7.37;;;;;9.50;100330.00;;;;9850030;30;20197;-80
2022/12/25 14:00:51;;;;;;;11.10;7.37;;;;;9.60;100321.00;;;;9849768;30;20568;-79
2022/12/25 14:06:06;;;;;;;10.77;7.03;;;;;9.60;100320.00;;;;9835099;30;20286;-79
2022/12/25 14:11:10;;;;;;;12.07;6.70;;;;;9.60;100321.00;;;;9835644;30;20266;-79
2022/12/25 14:16:15;;;;;;;11.50;7.80;;;;;9.60;100321.00;;;;9799998;30;20212;-79
2022/12/25 14:21:39;;;;;;;11.47;7.80;;;;;9.70;100317.00;;;;9813218;30;20573;-79
2022/12/25 14:26:42;;;;;;;11.87;7.90;;;;;9.80;100325.00;;;;9834512;30;20196;-79
2022/12/25 14:31:46;;;;;;;8.70;6.83;;;;;9.80;100315.00;;;;9819961;30;20239;-79
2022/12/25 14:36:50;;;;;;;11.53;8.03;;;;;9.80;100316.00;;;;9798681;30;20658;-79
2022/12/25 14:41:53;;;;;;;15.73;10.07;;;;;9.80;100305.00;;;;9834841;30;20204;-79
2022/12/25 14:47:11;;;;;;;15.83;9.80;;;;;9.80;100313.00;;;;9833556;30;20696;-79
2022/12/25 14:52:30;;;;;;;12.60;9.60;;;;;9.70;100316.00;;;;9833456;30;20218;-79
2022/12/25 14:57:39;;;;;;;11.13;8.50;;;;;9.70;100335.00;;;;9833082;30;20187;-78
2022/12/25 15:02:44;;;;;;;13.63;9.37;;;;;9.60;100330.00;;;;9834141;30;20291;-79
2022/12/25 15:08:19;;;;;;;12.80;9.30;;;;;9.70;100323.00;;;;9841354;30;20670;-79
2022/12/25 15:13:22;;;;;;;14.90;9.63;;;;;9.60;100320.00;;;;9842399;30;20293;-80
2022/12/25 15:18:29;;;;;;;13.70;10.27;;;;;9.60;100333.00;;;;9819362;30;20567;-79
2022/12/25 15:23:31;;;;;;;16.27;11.23;;;;;9.60;100332.00;;;;9796169;30;20208;-79
2022/12/25 15:28:33;;;;;;;19.20;11.53;;;;;9.60;100319.00;;;;9818832;30;20822;-80
2022/12/25 15:33:35;;;;;;;20.13;14.07;;;;;9.60;100319.00;;;;9833093;30;20732;-79
2022/12/25 15:38:45;;;;;;;18.70;13.03;;;;;9.60;100320.00;;;;9844346;30;20207;-79
2022/12/25 15:43:47;;;;;;;19.23;13.43;;;;;9.60;100317.00;;;;9846781;30;20196;-80
2022/12/25 15:48:49;;;;;;;19.67;13.10;;;;;9.60;100314.00;;;;9814694;30;20696;-80
2022/12/25 15:53:50;;;;;;;20.00;13.33;;;;;9.60;100311.00;;;;9826793;30;20200;-78
2022/12/25 15:58:52;;;;;;;19.87;12.77;;;;;9.60;100316.00;;;;9826984;30;20205;-78
2022/12/25 16:03:54;;;;;;;23.03;16.00;;;;;9.60;100325.00;;;;9812312;30;20208;-79
2022/12/25 16:08:56;;;;;;;28.70;18.90;;;;;9.60;100346.00;;;;9818009;30;20701;-78
2022/12/25 16:13:58;;;;;;;28.80;18.70;;;;;9.60;100346.00;;;;9805163;30;20216;-78
2022/12/25 16:19:00;;;;;;;31.20;19.03;;;;;9.60;100348.00;;;;9810928;30;20223;-80
2022/12/25 16:24:02;;;;;;;28.70;17.67;;;;;9.60;100351.00;;;;9825551;30;20185;-78
2022/12/25 16:29:04;;;;;;;23.23;15.23;;;;;9.60;100339.00;;;;9810730;30;20224;-78
2022/12/25 16:34:08;;;;;;;28.67;18.17;;;;;9.60;100332.00;;;;9811871;30;20219;-78
2022/12/25 16:39:11;;;;;;;29.53;17.23;;;;;9.60;100341.00;;;;9840708;30;20208;-78
2022/12/25 16:44:13;;;;;;;33.13;21.80;;;;;9.60;100337.00;;;;9840788;30;20209;-78
2022/12/25 16:49:15;;;;;;;41.17;25.30;;;;;9.70;100345.00;;;;9826058;30;20223;-79
2022/12/25 16:54:17;;;;;;;45.27;25.67;;;;;9.70;100343.00;;;;9824949;30;20231;-79
2022/12/25 16:59:19;;;;;;;35.33;23.30;;;;;9.80;100337.00;;;;9825151;30;20230;-79
2022/12/25 17:04:21;;;;;;;31.47;17.43;;;;;9.90;100340.00;;;;9825478;30;20204;-79
2022/12/25 17:09:23;;;;;;;27.50;15.90;;;;;9.90;100345.00;;;;9824793;30;20244;-79
2022/12/25 17:14:25;;;;;;;19.80;11.47;;;;;10.00;100348.00;;;;9838251;30;20208;-79
2022/12/25 17:19:27;;;;;;;26.57;14.70;;;;;10.00;100355.00;;;;9801270;30;20207;-79
2022/12/25 17:24:29;;;;;;;15.73;9.43;;;;;10.00;100330.00;;;;9838837;30;20259;-79
2022/12/25 17:29:31;;;;;;;17.97;9.30;;;;;10.10;100322.00;;;;9816605;30;20243;-78
2022/12/25 17:34:33;;;;;;;15.43;8.97;;;;;10.20;100321.00;;;;9826732;30;20675;-79
2022/12/25 17:39:35;;;;;;;15.20;9.07;;;;;10.20;100320.00;;;;9822713;30;20262;-79
2022/12/25 17:44:37;;;;;;;20.97;9.53;;;;;10.30;100331.00;;;;9837915;30;20946;-79
2022/12/25 17:49:39;;;;;;;15.67;9.07;;;;;10.30;100317.00;;;;9824496;30;20216;-79
2022/12/25 17:54:41;;;;;;;14.60;9.13;;;;;10.30;100342.00;;;;9823502;30;20208;-79
2022/12/25 17:59:43;;;;;;;16.43;9.10;;;;;10.30;100357.00;;;;9810883;30;20219;-79
2022/12/25 18:04:46;;;;;;;15.37;9.07;;;;;10.40;100347.00;;;;9798784;30;20233;-79
2022/12/25 18:09:48;;;;;;;14.93;9.17;;;;;10.40;100358.00;;;;9791267;30;20225;-79
2022/12/25 18:14:50;;;;;;;21.83;9.33;;;;;10.50;100364.00;;;;9812561;30;20235;-78
2022/12/25 18:19:52;;;;;;;20.27;8.73;;;;;10.60;100349.00;;;;9840567;30;20215;-79
2022/12/25 18:24:54;;;;;;;17.23;8.87;;;;;10.60;100353.00;;;;9824828;30;20289;-79
2022/12/25 18:29:56;;;;;;;14.27;8.80;;;;;10.60;100369.00;;;;9828482;30;20631;-79
2022/12/25 18:34:58;;;;;;;17.40;8.90;;;;;10.60;100365.00;;;;9832682;30;20216;-79
2022/12/25 18:40:01;;;;;;;18.67;9.13;;;;;10.60;100347.00;;;;9823592;30;20534;-78
2022/12/25 18:45:08;;;;;;;21.10;9.50;;;;;10.60;100340.00;;;;9830125;30;20217;-79
2022/12/25 18:50:11;;;;;;;13.77;8.23;;;;;10.70;100340.00;;;;9816445;30;20231;-80
2022/12/25 18:55:13;;;;;;;19.63;8.93;;;;;10.70;100357.00;;;;9849969;30;20287;-79
2022/12/25 19:00:15;;;;;;;14.40;8.07;;;;;10.70;100351.00;;;;9837040;30;20295;-79
2022/12/25 19:05:17;;;;;;;14.67;7.87;;;;;10.70;100338.00;;;;9822331;30;20232;-80
2022/12/25 19:10:19;;;;;;;13.33;8.47;;;;;10.70;100345.00;;;;9823515;30;20305;-79
2022/12/25 19:15:21;;;;;;;15.37;8.27;;;;;10.70;100349.00;;;;9852136;30;20287;-78
2022/12/25 19:20:23;;;;;;;17.00;7.77;;;;;10.70;100349.00;;;;9853145;30;20209;-78
2022/12/25 19:25:24;;;;;;;16.37;9.30;;;;;10.70;100340.00;;;;9838239;30;20315;-78
2022/12/25 19:30:26;;;;;;;18.90;9.43;;;;;10.70;100335.00;;;;9869640;30;20212;-79
2022/12/25 19:35:28;;;;;;;13.13;8.33;;;;;10.70;100326.00;;;;9826540;30;20235;-79
2022/12/25 19:40:30;;;;;;;19.93;8.87;;;;;10.60;100339.00;;;;9840755;30;20177;-80
2022/12/25 19:45:32;;;;;;;15.73;9.23;;;;;10.60;100373.00;;;;9840061;30;20275;-81
2022/12/25 19:50:34;;;;;;;13.57;9.07;;;;;10.60;100362.00;;;;9842650;30;20704;-81
2022/12/25 19:55:36;;;;;;;16.43;8.67;;;;;10.60;100375.00;;;;9840492;30;20276;-80
2022/12/25 20:00:39;;;;;;;14.57;8.63;;;;;10.60;100398.00;;;;9825370;30;20204;-80
2022/12/25 20:05:44;;;;;;;16.60;8.00;;;;;10.60;100395.00;;;;9854798;30;20290;-83
2022/12/25 20:10:46;;;;;;;10.37;6.67;;;;;10.60;100383.00;;;;9837407;30;20208;-82
2022/12/25 20:15:49;;;;;;;11.73;6.90;;;;;10.50;100369.00;;;;9836650;30;20689;-81
2022/12/25 20:20:58;;;;;;;8.30;6.43;;;;;10.50;100362.00;;;;9837662;30;20209;-81
2022/12/25 20:26:03;;;;;;;9.33;5.90;;;;;10.50;100355.00;;;;9835434;30;20232;-81
2022/12/25 20:31:11;;;;;;;7.57;4.93;;;;;10.50;100373.00;;;;9850595;30;20279;-82
2022/12/25 20:36:13;;;;;;;5.80;4.07;;;;;10.50;100364.00;;;;9797986;30;20217;-81
2022/12/25 20:41:19;;;;;;;6.37;3.90;;;;;10.50;100369.00;;;;9823120;30;20532;-80
2022/12/25 20:46:30;;;;;;;7.40;5.40;;;;;10.50;100379.00;;;;9838652;30;20207;-80
2022/12/25 20:51:32;;;;;;;10.77;6.10;;;;;10.60;100384.00;;;;9821661;30;20224;-80
2022/12/25 20:56:35;;;;;;;9.33;6.50;;;;;10.60;100390.00;;;;9807933;30;20277;-80
2022/12/25 21:01:37;;;;;;;11.60;7.13;;;;;10.60;100406.00;;;;9847421;30;20223;-81
2022/12/25 21:06:39;;;;;;;10.07;6.17;;;;;10.60;100423.00;;;;9822311;30;20723;-80
2022/12/25 21:11:41;;;;;;;7.90;5.93;;;;;10.70;100406.00;;;;9840253;30;20235;-80
2022/12/25 21:16:43;;;;;;;10.33;6.73;;;;;10.70;100417.00;;;;9821838;30;20323;-81
2022/12/25 21:21:48;;;;;;;10.53;7.37;;;;;10.70;100434.00;;;;9826908;30;20653;-81
2022/12/25 21:26:50;;;;;;;10.07;7.00;;;;;10.70;100434.00;;;;9839654;30;20227;-82
2022/12/25 21:37:13;;;;;;;12.30;7.90;;;;;10.70;100435.00;;;;9833656;30;20208;-81
2022/12/25 21:42:15;;;;;;;11.63;7.73;;;;;10.70;100440.00;;;;9802831;30;20273;-81
2022/12/25 21:47:17;;;;;;;9.73;6.77;;;;;10.70;100454.00;;;;9802557;30;20312;-81
2022/12/25 21:52:20;;;;;;;11.40;6.90;;;;;10.70;100450.00;;;;9832244;30;20226;-81
2022/12/25 21:57:21;;;;;;;8.93;6.70;;;;;10.70;100454.00;;;;9808761;30;20248;-81
2022/12/25 22:02:24;;;;;;;10.70;6.67;;;;;10.60;100452.00;;;;9830583;30;20305;-81
2022/12/25 22:07:26;;;;;;;7.67;5.17;;;;;10.60;100457.00;;;;9825188;30;20952;-81
2022/12/25 22:23:09;;;;;;;6.50;4.87;;;;;10.30;100465.00;;;;9847974;30;20275;-82
2022/12/25 22:28:11;;;;;;;5.50;3.63;;;;;10.30;100465.00;;;;9811116;30;20221;-82
2022/12/25 22:33:13;;;;;;;5.20;2.90;;;;;10.20;100469.00;;;;9809266;30;20205;-82
2022/12/25 22:38:15;;;;;;;3.93;2.67;;;;;10.10;100476.00;;;;9799564;30;20204;-82
2022/12/25 22:43:17;;;;;;;4.77;3.17;;;;;10.10;100477.00;;;;9835939;30;20240;-81
2022/12/25 22:48:19;;;;;;;6.13;3.33;;;;;10.10;100478.00;;;;9838034;30;20212;-81
2022/12/25 22:53:20;;;;;;;5.43;4.10;;;;;10.10;100483.00;;;;9829536;30;20800;-81
2022/12/25 22:58:22;;;;;;;6.10;4.07;;;;;10.00;100481.00;;;;9799802;30;20205;-80
2022/12/25 23:03:24;;;;;;;4.67;3.70;;;;;10.00;100487.00;;;;9818872;30;20299;-81
2022/12/25 23:08:27;;;;;;;6.87;4.10;;;;;10.00;100498.00;;;;9850354;30;20248;-81
2022/12/25 23:29:37;;;;;;;8.73;6.40;;;;;9.90;100490.00;;;;9847867;30;20220;-80
2022/12/25 23:34:40;;;;;;;9.73;6.33;;;;;9.90;100481.00;;;;9834202;30;20216;-81
2022/12/25 23:39:42;;;;;;;11.43;7.67;;;;;9.90;100503.00;;;;9833979;30;20209;-81
2022/12/25 23:44:44;;;;;;;12.27;7.43;;;;;9.80;100508.00;;;;9818576;30;20756;-81
2022/12/25 23:49:46;;;;;;;10.20;7.07;;;;;9.80;100511.00;;;;9819164;30;20235;-80
2022/12/25 23:54:47;;;;;;;11.60;8.07;;;;;9.80;100503.00;;;;9818607;30;20215;-80
2022/12/25 23:59:49;;;;;;;11.03;7.17;;;;;9.80;100516.00;;;;9833762;30;20208;-79
